createdAt,value
2022-11-26T00:00:00.548Z,30.17
2022-11-26T00:02:28.191Z,33.63
2022-11-26T00:04:55.674Z,25.53
2022-11-26T00:07:23.218Z,35.17
2022-11-26T00:09:50.740Z,36.67
2022-11-26T00:12:18.315Z,28.62
2022-11-26T00:14:45.838Z,22.70
2022-11-26T00:17:13.363Z,23.45
2022-11-26T00:19:40.924Z,23.70
2022-11-26T00:22:23.978Z,41.23
2022-11-26T00:24:52.152Z,32.00
2022-11-26T00:27:19.687Z,23.37
2022-11-26T00:29:47.992Z,16.37
2022-11-26T00:32:15.574Z,23.77
2022-11-26T00:34:43.079Z,22.77
2022-11-26T00:37:22.538Z,23.13
2022-11-26T00:39:50.063Z,19.67
2022-11-26T00:42:17.599Z,25.20
2022-11-26T00:44:45.142Z,33.17
2022-11-26T00:47:12.688Z,39.30
2022-11-26T00:49:40.242Z,60.40
2022-11-26T00:52:07.737Z,23.23
2022-11-26T00:54:35.369Z,42.67
2022-11-26T00:57:02.824Z,27.33
2022-11-26T00:59:30.370Z,36.03
2022-11-26T01:01:57.919Z,24.53
2022-11-26T01:04:25.410Z,38.60
2022-11-26T01:06:52.976Z,29.20
2022-11-26T01:09:20.525Z,57.77
2022-11-26T01:11:53.557Z,19.47
2022-11-26T01:14:18.513Z,46.83
2022-11-26T01:16:46.106Z,48.00
2022-11-26T01:19:13.622Z,66.20
2022-11-26T01:21:41.180Z,60.70
2022-11-26T01:24:08.704Z,57.27
2022-11-26T01:26:41.716Z,75.30
2022-11-26T01:29:16.208Z,38.10
2022-11-26T01:31:43.793Z,101.73
2022-11-26T01:34:11.265Z,109.27
2022-11-26T01:36:39.085Z,120.10
2022-11-26T01:39:06.611Z,143.40
2022-11-26T01:41:34.150Z,126.90
2022-11-26T01:44:02.726Z,83.97
2022-11-26T01:46:31.009Z,91.77
2022-11-26T01:49:14.256Z,84.40
2022-11-26T01:51:41.787Z,38.97
2022-11-26T01:54:10.084Z,53.40
2022-11-26T01:56:46.477Z,66.07
2022-11-26T01:59:25.831Z,61.03
2022-11-26T02:01:53.439Z,37.63
2022-11-26T02:04:20.910Z,34.40
2022-11-26T02:06:48.437Z,35.83
2022-11-26T02:09:15.979Z,30.10
2022-11-26T02:11:43.523Z,30.47
2022-11-26T02:14:11.047Z,43.30
2022-11-26T02:16:47.624Z,25.23
2022-11-26T02:19:23.778Z,44.10
2022-11-26T02:21:53.807Z,42.17
2022-11-26T02:24:36.526Z,27.57
2022-11-26T02:27:12.678Z,49.67
2022-11-26T02:29:58.595Z,29.83
2022-11-26T02:32:35.169Z,45.60
2022-11-26T02:35:02.693Z,21.70
2022-11-26T02:37:48.767Z,62.13
2022-11-26T02:40:16.273Z,40.83
2022-11-26T02:42:43.826Z,42.40
2022-11-26T02:45:14.857Z,22.67
2022-11-26T02:47:42.382Z,18.07
2022-11-26T02:50:10.697Z,16.40
2022-11-26T02:52:38.262Z,38.30
2022-11-26T02:55:05.800Z,31.07
2022-11-26T02:57:34.108Z,36.93
2022-11-26T03:00:01.657Z,29.13
2022-11-26T03:02:34.856Z,28.80
2022-11-26T03:05:02.371Z,17.47
2022-11-26T03:07:30.777Z,32.20
2022-11-26T03:09:58.217Z,21.60
2022-11-26T03:12:26.502Z,21.20
2022-11-26T03:14:54.380Z,10.93
2022-11-26T03:17:21.895Z,11.20
2022-11-26T03:19:49.422Z,9.93
2022-11-26T03:22:16.964Z,7.23
2022-11-26T03:24:44.480Z,10.87
2022-11-26T03:27:11.995Z,8.27
2022-11-26T03:29:39.585Z,8.47
2022-11-26T03:32:07.842Z,9.90
2022-11-26T03:34:36.350Z,8.67
2022-11-26T03:37:04.400Z,12.37
2022-11-26T03:39:31.925Z,11.30
2022-11-26T03:41:59.453Z,13.00
2022-11-26T03:44:26.999Z,10.80
2022-11-26T03:46:54.543Z,10.43
2022-11-26T03:49:24.706Z,8.97
2022-11-26T03:51:53.043Z,9.50
2022-11-26T03:54:20.625Z,9.03
2022-11-26T03:56:48.159Z,7.70
2022-11-26T03:59:15.714Z,9.20
2022-11-26T04:01:43.275Z,9.97
2022-11-26T04:04:10.723Z,7.53
2022-11-26T04:06:39.488Z,6.17
2022-11-26T04:09:07.781Z,11.53
2022-11-26T04:11:35.345Z,8.13
2022-11-26T04:14:03.620Z,8.63
2022-11-26T04:16:31.168Z,9.73
2022-11-26T04:18:58.658Z,8.67
2022-11-26T04:21:26.243Z,8.00
2022-11-26T04:23:53.768Z,12.03
2022-11-26T04:26:21.303Z,11.82
2022-11-26T04:28:48.858Z,13.73
2022-11-26T04:31:17.166Z,11.60
2022-11-26T04:33:44.666Z,10.50
2022-11-26T04:36:12.219Z,9.87
2022-11-26T04:38:39.755Z,10.77
2022-11-26T04:41:07.299Z,10.80
2022-11-26T04:43:34.893Z,10.73
2022-11-26T04:46:02.475Z,14.00
2022-11-26T04:48:29.952Z,11.20
2022-11-26T04:50:58.296Z,10.47
2022-11-26T04:53:25.830Z,8.83
2022-11-26T04:55:53.364Z,10.13
2022-11-26T04:58:20.931Z,10.33
2022-11-26T05:00:50.927Z,10.27
2022-11-26T05:03:15.979Z,11.17
2022-11-26T05:05:43.532Z,13.52
2022-11-26T05:08:11.058Z,10.00
2022-11-26T05:10:38.562Z,12.03
2022-11-26T05:13:06.138Z,11.20
2022-11-26T05:15:33.676Z,12.13
2022-11-26T05:18:01.169Z,13.45
2022-11-26T05:20:28.721Z,10.90
2022-11-26T05:22:56.250Z,12.80
2022-11-26T05:25:23.772Z,12.52
2022-11-26T05:27:51.425Z,13.33
2022-11-26T05:30:18.959Z,10.03
2022-11-26T05:32:46.493Z,9.47
2022-11-26T05:35:14.050Z,11.03
2022-11-26T05:37:41.591Z,12.27
2022-11-26T05:40:09.128Z,10.93
2022-11-26T05:42:36.700Z,11.27
2022-11-26T05:45:04.216Z,10.80
2022-11-26T05:47:31.753Z,12.27
2022-11-26T05:49:59.309Z,11.60
2022-11-26T05:52:26.860Z,10.93
2022-11-26T05:54:54.374Z,12.23
2022-11-26T05:57:22.709Z,14.00
2022-11-26T05:59:50.312Z,10.93
2022-11-26T06:02:18.755Z,8.60
2022-11-26T06:04:46.961Z,11.13
2022-11-26T06:07:14.553Z,10.63
2022-11-26T06:09:42.036Z,11.27
2022-11-26T06:12:09.655Z,10.70
2022-11-26T06:14:40.393Z,9.73
2022-11-26T06:17:04.707Z,10.50
2022-11-26T06:19:32.294Z,10.03
2022-11-26T06:21:59.815Z,8.73
2022-11-26T06:24:27.386Z,8.00
2022-11-26T06:26:55.682Z,10.70
2022-11-26T06:29:27.706Z,11.20
2022-11-26T06:31:50.844Z,10.47
2022-11-26T06:34:18.297Z,10.73
2022-11-26T06:36:45.811Z,15.57
2022-11-26T06:39:13.346Z,10.77
2022-11-26T06:41:41.727Z,10.07
2022-11-26T06:44:09.224Z,11.23
2022-11-26T06:46:36.767Z,10.70
2022-11-26T06:49:04.617Z,15.57
2022-11-26T06:51:32.162Z,10.10
2022-11-26T06:53:59.737Z,12.43
2022-11-26T06:56:27.313Z,11.87
2022-11-26T06:58:57.244Z,13.53
2022-11-26T07:01:24.816Z,11.80
2022-11-26T07:03:53.085Z,15.50
2022-11-26T07:06:23.235Z,9.07
2022-11-26T07:08:50.754Z,9.93
2022-11-26T07:11:18.299Z,9.60
2022-11-26T07:13:45.823Z,11.70
2022-11-26T07:16:14.187Z,12.20
2022-11-26T07:18:41.701Z,12.10
2022-11-26T07:21:09.234Z,9.90
2022-11-26T07:23:36.759Z,8.33
2022-11-26T07:26:04.333Z,11.63
2022-11-26T07:28:31.923Z,11.87
2022-11-26T07:31:02.511Z,13.47
2022-11-26T07:33:30.768Z,13.27
2022-11-26T07:36:01.137Z,18.83
2022-11-26T07:38:29.433Z,14.23
2022-11-26T07:40:58.054Z,14.33
2022-11-26T07:43:25.600Z,13.53
2022-11-26T07:45:53.157Z,13.87
2022-11-26T07:48:21.466Z,12.00
2022-11-26T07:50:49.040Z,18.13
2022-11-26T07:53:16.572Z,15.50
2022-11-26T07:55:44.642Z,21.73
2022-11-26T07:58:12.177Z,20.37
2022-11-26T08:00:39.722Z,12.97
2022-11-26T08:03:08.043Z,15.97
2022-11-26T08:05:35.569Z,13.93
2022-11-26T08:08:03.228Z,18.10
2022-11-26T08:10:31.021Z,13.40
2022-11-26T08:12:58.567Z,16.43
2022-11-26T08:15:26.091Z,18.10
2022-11-26T08:17:56.403Z,23.87
2022-11-26T08:20:28.649Z,17.73
2022-11-26T08:22:51.528Z,23.33
2022-11-26T08:25:19.103Z,24.80
2022-11-26T08:27:46.660Z,15.23
2022-11-26T08:30:14.974Z,22.30
2022-11-26T08:32:42.536Z,17.13
2022-11-26T08:35:10.073Z,18.90
2022-11-26T08:37:37.633Z,29.83
2022-11-26T08:40:06.129Z,19.50
2022-11-26T08:42:33.673Z,28.60
2022-11-26T08:45:01.959Z,16.87
2022-11-26T08:47:29.523Z,25.07
2022-11-26T08:49:57.051Z,27.00
2022-11-26T08:52:24.585Z,27.07
2022-11-26T08:54:52.202Z,30.30
2022-11-26T08:57:19.724Z,26.63
2022-11-26T08:59:47.259Z,32.83
2022-11-26T09:02:18.653Z,33.45
2022-11-26T09:04:42.339Z,38.67
2022-11-26T09:07:09.899Z,32.03
2022-11-26T09:09:37.429Z,30.13
2022-11-26T09:12:04.953Z,33.03
2022-11-26T09:14:32.534Z,32.77
2022-11-26T09:17:00.153Z,28.93
2022-11-26T09:19:27.627Z,25.20
2022-11-26T09:21:55.170Z,22.03
2022-11-26T09:24:22.745Z,34.33
2022-11-26T09:26:50.305Z,24.73
2022-11-26T09:29:17.849Z,26.97
2022-11-26T09:32:15.403Z,21.97
2022-11-26T09:34:13.010Z,18.07
2022-11-26T09:36:40.565Z,18.57
2022-11-26T09:39:08.177Z,28.60
2022-11-26T09:41:47.318Z,18.10
2022-11-26T09:44:33.519Z,16.87
2022-11-26T09:47:14.009Z,19.27
2022-11-26T09:49:34.206Z,21.00
2022-11-26T09:52:01.779Z,16.93
2022-11-26T09:54:29.353Z,18.00
2022-11-26T09:56:59.931Z,20.27
2022-11-26T09:59:28.141Z,20.20
2022-11-26T10:01:55.720Z,21.37
2022-11-26T10:04:23.213Z,17.40
2022-11-26T10:07:05.773Z,17.13
2022-11-26T10:09:51.038Z,20.13
2022-11-26T10:12:28.180Z,19.43
2022-11-26T10:15:04.399Z,18.93
2022-11-26T10:17:34.711Z,17.97
2022-11-26T10:20:13.864Z,16.73
2022-11-26T10:22:41.451Z,17.23
2022-11-26T10:25:20.838Z,13.90
2022-11-26T10:27:48.432Z,15.87
2022-11-26T10:30:22.001Z,14.93
2022-11-26T10:32:49.546Z,14.40
2022-11-26T10:35:17.112Z,14.97
2022-11-26T10:37:44.645Z,15.37
2022-11-26T10:40:14.682Z,19.37
2022-11-26T10:42:42.289Z,15.60
2022-11-26T10:45:18.592Z,15.07
2022-11-26T10:47:46.127Z,16.33
2022-11-26T10:50:46.027Z,12.93
2022-11-26T10:52:47.842Z,16.90
2022-11-26T10:55:24.206Z,19.83
2022-11-26T10:57:51.751Z,15.00
2022-11-26T11:00:44.215Z,15.23
2022-11-26T11:04:06.201Z,14.50
2022-11-26T11:06:10.389Z,15.77
2022-11-26T11:08:38.432Z,15.30
2022-11-26T11:11:05.971Z,13.50
2022-11-26T11:13:40.612Z,13.97
2022-11-26T11:16:09.057Z,20.47
2022-11-26T11:18:36.487Z,13.17
2022-11-26T11:21:05.201Z,15.60
2022-11-26T11:24:00.618Z,18.07
2022-11-26T11:26:05.837Z,16.80
2022-11-26T11:28:33.370Z,17.80
2022-11-26T11:31:06.785Z,15.70
2022-11-26T11:33:34.318Z,18.90
2022-11-26T11:36:04.644Z,18.07
2022-11-26T11:38:32.157Z,20.73
2022-11-26T11:40:59.746Z,18.53
2022-11-26T11:43:27.291Z,16.10
2022-11-26T11:46:04.652Z,14.20
2022-11-26T11:48:38.340Z,16.20
2022-11-26T11:51:24.060Z,15.13
2022-11-26T11:53:54.586Z,12.67
2022-11-26T11:56:37.609Z,13.80
2022-11-26T11:59:08.324Z,16.07
2022-11-26T12:01:57.059Z,16.23
2022-11-26T12:04:43.073Z,12.60
2022-11-26T12:07:32.555Z,16.30
2022-11-26T12:10:15.156Z,14.80
2022-11-26T12:12:48.897Z,16.40
2022-11-26T12:15:17.216Z,15.77
2022-11-26T12:18:12.170Z,17.60
2022-11-26T12:20:58.702Z,12.83
2022-11-26T12:23:29.629Z,16.87
2022-11-26T12:26:05.845Z,12.57
2022-11-26T12:28:37.059Z,12.83
2022-11-26T12:31:07.644Z,14.55
2022-11-26T12:33:44.524Z,15.43
2022-11-26T12:36:20.621Z,14.73
2022-11-26T12:38:54.141Z,16.93
2022-11-26T12:41:27.100Z,11.13
2022-11-26T12:44:06.568Z,13.23
2022-11-26T12:46:45.513Z,15.77
2022-11-26T12:49:31.077Z,12.50
2022-11-26T12:52:26.149Z,14.90
2022-11-26T12:55:02.510Z,13.50
2022-11-26T12:57:33.054Z,12.77
2022-11-26T13:00:06.272Z,16.33
2022-11-26T13:02:36.285Z,18.63
2022-11-26T13:05:03.780Z,14.93
2022-11-26T13:07:31.349Z,16.17
2022-11-26T13:10:19.823Z,13.85
2022-11-26T13:12:56.564Z,13.07
2022-11-26T13:15:45.477Z,15.97
2022-11-26T13:18:15.686Z,18.98
2022-11-26T13:21:01.939Z,19.63
2022-11-26T13:23:47.680Z,21.13
2022-11-26T13:26:33.512Z,13.27
2022-11-26T13:29:27.822Z,22.57
2022-11-26T13:32:01.104Z,15.03
2022-11-26T13:34:40.714Z,22.27
2022-11-26T13:37:21.105Z,19.87
2022-11-26T13:40:19.283Z,21.90
2022-11-26T13:43:11.691Z,18.57
2022-11-26T13:46:00.330Z,28.07
2022-11-26T13:48:33.655Z,19.73
2022-11-26T13:51:01.190Z,20.27
2022-11-26T13:53:37.634Z,17.07
2022-11-26T13:56:05.918Z,15.80
2022-11-26T13:58:48.450Z,20.67
2022-11-26T14:01:31.044Z,25.17
2022-11-26T14:03:58.591Z,13.73
2022-11-26T14:06:26.895Z,21.87
2022-11-26T14:08:54.413Z,23.70
2022-11-26T14:11:46.391Z,23.30
2022-11-26T14:14:25.859Z,28.25
2022-11-26T14:17:02.787Z,22.03
2022-11-26T14:19:41.854Z,16.50
2022-11-26T14:22:11.888Z,17.70
2022-11-26T14:24:51.042Z,19.43
2022-11-26T14:27:33.395Z,13.33
2022-11-26T14:30:06.773Z,22.92
2022-11-26T14:32:37.635Z,14.13
2022-11-26T14:35:05.166Z,21.17
2022-11-26T14:37:33.460Z,20.67
2022-11-26T14:40:07.020Z,21.47
2022-11-26T14:42:34.523Z,17.93
2022-11-26T14:45:02.059Z,14.80
2022-11-26T14:47:29.653Z,24.17
2022-11-26T14:50:02.663Z,16.90
2022-11-26T14:52:30.188Z,18.93
2022-11-26T14:54:57.802Z,18.70
2022-11-26T14:57:25.299Z,22.60
2022-11-26T14:59:59.281Z,21.57
2022-11-26T15:02:26.905Z,17.00
2022-11-26T15:05:00.551Z,20.63
2022-11-26T15:07:28.157Z,25.57
2022-11-26T15:10:08.048Z,16.53
2022-11-26T15:12:35.512Z,19.37
2022-11-26T15:15:03.039Z,18.43
2022-11-26T15:17:30.599Z,19.77
2022-11-26T15:19:58.124Z,17.27
2022-11-26T15:22:34.773Z,22.47
2022-11-26T15:25:02.303Z,21.50
2022-11-26T15:27:35.971Z,17.33
2022-11-26T15:30:03.532Z,20.97
2022-11-26T15:32:31.068Z,17.07
2022-11-26T15:34:58.592Z,22.13
2022-11-26T15:37:26.215Z,12.60
2022-11-26T15:40:26.951Z,20.70
2022-11-26T15:42:54.604Z,16.33
2022-11-26T15:45:22.147Z,17.40
2022-11-26T15:47:49.664Z,15.37
2022-11-26T15:50:17.251Z,12.10
2022-11-26T15:52:44.756Z,17.23
2022-11-26T15:55:13.481Z,17.52
2022-11-26T15:57:39.921Z,14.37
2022-11-26T16:00:07.636Z,17.43
2022-11-26T16:02:35.179Z,12.80
2022-11-26T16:05:02.750Z,22.17
2022-11-26T16:07:31.080Z,12.87
2022-11-26T16:10:11.303Z,20.20
2022-11-26T16:12:38.842Z,47.40
2022-11-26T16:15:22.146Z,15.03
2022-11-26T16:17:49.680Z,17.30
2022-11-26T16:20:17.225Z,18.43
2022-11-26T16:22:44.878Z,17.70
2022-11-26T16:25:24.307Z,13.07
2022-11-26T16:28:03.755Z,16.63
2022-11-26T16:30:31.320Z,19.37
2022-11-26T16:32:58.807Z,17.53
2022-11-26T16:35:44.569Z,13.93
2022-11-26T16:37:53.906Z,14.50
2022-11-26T16:40:21.410Z,19.17
2022-11-26T16:42:48.984Z,15.20
2022-11-26T16:45:17.288Z,9.23
2022-11-26T16:47:50.591Z,12.63
2022-11-26T16:50:23.611Z,12.23
2022-11-26T16:52:51.161Z,15.30
2022-11-26T16:55:18.724Z,13.73
2022-11-26T16:57:46.581Z,10.57
2022-11-26T17:00:16.947Z,12.50
2022-11-26T17:02:44.543Z,14.80
2022-11-26T17:05:12.063Z,14.00
2022-11-26T17:07:42.367Z,14.30
2022-11-26T17:10:18.586Z,16.13
2022-11-26T17:12:46.133Z,17.60
2022-11-26T17:15:13.648Z,12.93
2022-11-26T17:17:42.244Z,16.67
2022-11-26T17:20:15.953Z,19.13
2022-11-26T17:22:43.529Z,13.17
2022-11-26T17:25:12.153Z,14.60
2022-11-26T17:27:39.689Z,100.40
2022-11-26T17:30:07.293Z,56.33
2022-11-26T17:32:34.892Z,27.35
2022-11-26T17:35:02.437Z,18.83
2022-11-26T17:37:29.972Z,21.07
2022-11-26T17:39:58.735Z,21.30
2022-11-26T17:42:26.268Z,17.33
2022-11-26T17:44:53.804Z,37.53
2022-11-26T17:47:26.965Z,19.23
2022-11-26T17:49:54.427Z,20.00
2022-11-26T17:52:21.963Z,15.27
2022-11-26T17:54:49.559Z,23.00
2022-11-26T17:57:17.092Z,15.37
2022-11-26T17:59:44.620Z,22.90
2022-11-26T18:02:12.245Z,23.57
2022-11-26T18:04:39.699Z,17.27
2022-11-26T18:07:07.210Z,14.03
2022-11-26T18:09:34.795Z,21.10
2022-11-26T18:12:02.330Z,18.03
2022-11-26T18:14:29.866Z,30.30
2022-11-26T18:16:57.472Z,19.50
2022-11-26T18:19:24.962Z,17.50
2022-11-26T18:21:52.537Z,23.40
2022-11-26T18:24:20.060Z,27.53
2022-11-26T18:26:47.645Z,22.90
2022-11-26T18:29:15.200Z,21.27
2022-11-26T18:31:42.784Z,20.30
2022-11-26T18:34:10.309Z,20.93
2022-11-26T18:36:37.844Z,19.93
2022-11-26T18:39:05.476Z,19.20
2022-11-26T18:41:33.033Z,22.07
2022-11-26T18:44:02.980Z,18.40
2022-11-26T18:46:30.599Z,18.60
2022-11-26T18:48:58.080Z,21.10
2022-11-26T18:51:25.612Z,23.90
2022-11-26T18:53:53.166Z,20.80
2022-11-26T18:56:20.706Z,21.97
2022-11-26T18:58:48.235Z,26.33
2022-11-26T19:01:18.293Z,22.60
2022-11-26T19:03:45.749Z,19.37
2022-11-26T19:06:15.943Z,18.10
2022-11-26T19:08:43.524Z,24.57
2022-11-26T19:11:13.747Z,16.93
2022-11-26T19:13:41.283Z,20.20
2022-11-26T19:16:14.530Z,17.37
2022-11-26T19:18:36.402Z,19.70
2022-11-26T19:21:03.936Z,18.50
2022-11-26T19:23:31.598Z,19.43
2022-11-26T19:25:59.913Z,15.10
2022-11-26T19:28:27.470Z,18.27
2022-11-26T19:31:00.580Z,18.80
2022-11-26T19:33:28.009Z,18.80
2022-11-26T19:35:55.514Z,20.50
2022-11-26T19:38:23.101Z,17.37
2022-11-26T19:40:57.103Z,20.77
2022-11-26T19:43:27.325Z,20.02
2022-11-26T19:46:04.237Z,19.40
2022-11-26T19:48:31.709Z,18.55
2022-11-26T19:50:59.234Z,13.70
2022-11-26T19:53:27.664Z,17.63
2022-11-26T19:55:57.711Z,16.13
2022-11-26T19:58:25.235Z,15.07
2022-11-26T20:00:52.849Z,19.33
2022-11-26T20:03:20.334Z,16.70
2022-11-26T20:05:47.859Z,22.70
2022-11-26T20:08:15.452Z,18.87
2022-11-26T20:10:48.389Z,21.97
2022-11-26T20:13:11.309Z,16.67
2022-11-26T20:15:38.884Z,22.33
2022-11-26T20:18:06.420Z,23.33
2022-11-26T20:20:33.962Z,18.97
2022-11-26T20:23:01.547Z,21.13
2022-11-26T20:25:29.104Z,19.77
2022-11-26T20:28:00.023Z,14.77
2022-11-26T20:30:28.470Z,18.27
2022-11-26T20:32:55.959Z,16.13
2022-11-26T20:35:24.254Z,22.53
2022-11-26T20:37:51.826Z,14.20
2022-11-26T20:40:19.352Z,14.50
2022-11-26T20:42:46.889Z,36.67
2022-11-26T20:45:14.460Z,17.33
2022-11-26T20:47:41.986Z,17.27
2022-11-26T20:50:09.511Z,13.10
2022-11-26T20:52:37.153Z,11.20
2022-11-26T20:55:04.688Z,18.43
2022-11-26T20:57:32.203Z,16.03
2022-11-26T20:59:59.787Z,12.43
2022-11-26T21:02:27.384Z,16.50
2022-11-26T21:04:54.876Z,13.17
2022-11-26T21:07:22.523Z,14.10
2022-11-26T21:09:50.017Z,13.33
2022-11-26T21:12:17.549Z,16.30
2022-11-26T21:14:45.135Z,13.57
2022-11-26T21:17:12.780Z,13.83
2022-11-26T21:19:40.471Z,10.97
2022-11-26T21:22:08.547Z,14.53
2022-11-26T21:24:36.073Z,11.87
2022-11-26T21:27:03.598Z,15.17
2022-11-26T21:29:31.151Z,15.27
2022-11-26T21:31:58.687Z,12.10
2022-11-26T21:34:26.212Z,13.30
2022-11-26T21:36:54.444Z,14.80
2022-11-26T21:39:21.977Z,15.40
2022-11-26T21:41:49.514Z,17.87
2022-11-26T21:44:17.688Z,15.40
2022-11-26T21:46:45.352Z,13.10
2022-11-26T21:49:13.514Z,15.13
2022-11-26T21:51:41.058Z,16.90
2022-11-26T21:54:09.342Z,18.83
2022-11-26T21:56:37.627Z,15.63
2022-11-26T21:59:05.242Z,20.40
2022-11-26T22:01:32.853Z,12.27
2022-11-26T22:04:00.303Z,16.17
2022-11-26T22:06:28.641Z,10.40
2022-11-26T22:08:56.185Z,16.93
2022-11-26T22:11:26.409Z,9.00
2022-11-26T22:13:53.985Z,11.23
2022-11-26T22:16:21.589Z,12.87
2022-11-26T22:18:49.056Z,13.13
2022-11-26T22:21:16.596Z,21.30
2022-11-26T22:23:44.873Z,13.40
2022-11-26T22:26:13.164Z,18.37
2022-11-26T22:28:40.751Z,16.03
2022-11-26T22:31:23.670Z,11.17
2022-11-26T22:33:51.153Z,10.90
2022-11-26T22:36:18.654Z,16.87
2022-11-26T22:38:46.956Z,15.65
2022-11-26T22:41:14.528Z,16.37
2022-11-26T22:43:42.053Z,12.10
2022-11-26T22:46:10.458Z,10.90
2022-11-26T22:48:37.884Z,10.27
2022-11-26T22:51:06.177Z,13.30
2022-11-26T22:53:33.709Z,16.67
2022-11-26T22:56:01.273Z,14.80
2022-11-26T22:58:29.545Z,17.27
2022-11-26T23:00:59.818Z,11.63
2022-11-26T23:03:27.487Z,16.60
2022-11-26T23:05:54.888Z,17.60
2022-11-26T23:08:22.423Z,14.27
2022-11-26T23:10:49.956Z,16.40
2022-11-26T23:13:17.487Z,14.20
2022-11-26T23:15:45.784Z,17.00
2022-11-26T23:18:13.359Z,14.57
2022-11-26T23:20:40.875Z,13.33
2022-11-26T23:23:08.431Z,11.70
2022-11-26T23:25:41.743Z,14.23
2022-11-26T23:28:09.277Z,17.33
2022-11-26T23:30:36.801Z,12.50
2022-11-26T23:33:04.377Z,15.57
2022-11-26T23:35:31.891Z,13.83
2022-11-26T23:37:59.418Z,13.47
2022-11-26T23:40:26.960Z,14.77
2022-11-26T23:42:54.486Z,16.67
2022-11-26T23:45:22.025Z,22.30
2022-11-26T23:47:50.521Z,14.87
2022-11-26T23:50:18.035Z,20.13
2022-11-26T23:52:45.560Z,14.00
2022-11-26T23:55:13.115Z,16.73
2022-11-26T23:57:40.640Z,16.30
